Terminal Aerodrome Forecast
Issued by NWS

Home | Current Version | Previous Version | Text Only | Print | Product List | Glossary On
Versions: 1 2 3 4 5 6 7 8 9 10 11 12 13 14 15 16 17 18 19 20 21 22 23 24
000
FTAK31 PAJN 021203 AAA
TAFAYA
TAF AMD
PAYA 021203Z 0212/0312 00000KT 2SM BR SCT003 SCT100
      TEMPO 0212/0216 1/2SM FG OVC002
     FM021700 VRB03KT P6SM FEW003 SCT100
     FM022000 28006KT P6SM FEW010 BKN100
     FM030600 VRB03KT P6SM VCFG SCT005 SCT150=

USA.gov is the U.S. government's official web portal to all federal, state and local government web resources and services.